sensor_id;sensor_type;location;lat;lon;timestamp;temperature;humidity
57564;DHT22;43400;45.926;6.724;2022-09-17T00:00:01;12.70;92.00
57564;DHT22;43400;45.926;6.724;2022-09-17T00:02:32;12.50;91.10
57564;DHT22;43400;45.926;6.724;2022-09-17T00:05:04;12.50;93.60
57564;DHT22;43400;45.926;6.724;2022-09-17T00:07:36;12.50;92.40
57564;DHT22;43400;45.926;6.724;2022-09-17T00:10:09;12.50;91.70
57564;DHT22;43400;45.926;6.724;2022-09-17T00:12:41;12.50;90.90
57564;DHT22;43400;45.926;6.724;2022-09-17T00:15:14;12.40;89.20
57564;DHT22;43400;45.926;6.724;2022-09-17T00:17:46;12.40;89.70
57564;DHT22;43400;45.926;6.724;2022-09-17T00:20:18;12.50;88.50
57564;DHT22;43400;45.926;6.724;2022-09-17T00:22:51;12.70;90.50
57564;DHT22;43400;45.926;6.724;2022-09-17T00:25:23;12.70;90.90
57564;DHT22;43400;45.926;6.724;2022-09-17T00:27:55;12.70;91.00
57564;DHT22;43400;45.926;6.724;2022-09-17T00:30:27;12.60;90.40
57564;DHT22;43400;45.926;6.724;2022-09-17T00:32:58;12.60;90.00
57564;DHT22;43400;45.926;6.724;2022-09-17T00:35:30;12.40;89.40
57564;DHT22;43400;45.926;6.724;2022-09-17T00:38:01;12.50;89.10
57564;DHT22;43400;45.926;6.724;2022-09-17T00:40:33;12.50;91.00
57564;DHT22;43400;45.926;6.724;2022-09-17T00:43:10;12.50;91.50
57564;DHT22;43400;45.926;6.724;2022-09-17T00:45:41;12.40;87.60
57564;DHT22;43400;45.926;6.724;2022-09-17T00:48:13;12.40;91.40
57564;DHT22;43400;45.926;6.724;2022-09-17T00:50:45;12.40;89.80
57564;DHT22;43400;45.926;6.724;2022-09-17T00:53:19;12.50;86.60
57564;DHT22;43400;45.926;6.724;2022-09-17T00:56:04;12.50;86.70
57564;DHT22;43400;45.926;6.724;2022-09-17T00:58:37;12.20;82.90
57564;DHT22;43400;45.926;6.724;2022-09-17T01:01:09;12.20;80.50
57564;DHT22;43400;45.926;6.724;2022-09-17T01:03:41;12.20;81.70
57564;DHT22;43400;45.926;6.724;2022-09-17T01:29:44;12.10;84.40
57564;DHT22;43400;45.926;6.724;2022-09-17T01:32:16;12.00;84.60
57564;DHT22;43400;45.926;6.724;2022-09-17T01:35:28;12.00;83.50
57564;DHT22;43400;45.926;6.724;2022-09-17T01:38:31;12.10;84.40
57564;DHT22;43400;45.926;6.724;2022-09-17T01:43:58;12.20;84.80
57564;DHT22;43400;45.926;6.724;2022-09-17T01:46:39;12.30;85.80
57564;DHT22;43400;45.926;6.724;2022-09-17T01:49:14;12.20;85.90
57564;DHT22;43400;45.926;6.724;2022-09-17T01:51:48;12.30;86.00
57564;DHT22;43400;45.926;6.724;2022-09-17T01:54:30;12.20;84.20
57564;DHT22;43400;45.926;6.724;2022-09-17T01:57:05;12.10;87.60
57564;DHT22;43400;45.926;6.724;2022-09-17T01:59:46;12.10;90.40
57564;DHT22;43400;45.926;6.724;2022-09-17T02:02:31;12.00;91.00
57564;DHT22;43400;45.926;6.724;2022-09-17T02:05:15;12.10;91.40
57564;DHT22;43400;45.926;6.724;2022-09-17T02:07:56;12.00;91.20
57564;DHT22;43400;45.926;6.724;2022-09-17T02:10:32;12.10;91.30
57564;DHT22;43400;45.926;6.724;2022-09-17T02:13:18;12.10;92.10
57564;DHT22;43400;45.926;6.724;2022-09-17T02:15:59;12.10;91.20
57564;DHT22;43400;45.926;6.724;2022-09-17T02:18:43;12.10;91.30
57564;DHT22;43400;45.926;6.724;2022-09-17T02:26:34;12.20;91.60
57564;DHT22;43400;45.926;6.724;2022-09-17T02:29:13;12.20;92.00
57564;DHT22;43400;45.926;6.724;2022-09-17T02:31:48;12.10;93.20
57564;DHT22;43400;45.926;6.724;2022-09-17T02:34:20;12.00;92.20
57564;DHT22;43400;45.926;6.724;2022-09-17T02:36:53;12.00;93.00
57564;DHT22;43400;45.926;6.724;2022-09-17T02:39:26;12.10;92.70
57564;DHT22;43400;45.926;6.724;2022-09-17T02:42:31;12.10;92.70
57564;DHT22;43400;45.926;6.724;2022-09-17T02:48:19;12.00;90.40
57564;DHT22;43400;45.926;6.724;2022-09-17T02:51:12;12.10;90.20
57564;DHT22;43400;45.926;6.724;2022-09-17T02:53:57;12.20;90.60
57564;DHT22;43400;45.926;6.724;2022-09-17T03:02:44;11.90;94.20
57564;DHT22;43400;45.926;6.724;2022-09-17T03:05:18;11.90;94.80
57564;DHT22;43400;45.926;6.724;2022-09-17T03:07:51;11.90;95.00
57564;DHT22;43400;45.926;6.724;2022-09-17T03:10:25;11.90;93.80
57564;DHT22;43400;45.926;6.724;2022-09-17T03:12:56;11.80;95.90
57564;DHT22;43400;45.926;6.724;2022-09-17T03:15:28;11.70;93.60
57564;DHT22;43400;45.926;6.724;2022-09-17T03:18:00;11.60;91.80
57564;DHT22;43400;45.926;6.724;2022-09-17T03:20:31;11.70;91.80
57564;DHT22;43400;45.926;6.724;2022-09-17T03:23:03;11.70;93.60
57564;DHT22;43400;45.926;6.724;2022-09-17T03:25:34;11.80;95.10
57564;DHT22;43400;45.926;6.724;2022-09-17T03:28:06;11.80;97.40
57564;DHT22;43400;45.926;6.724;2022-09-17T03:30:38;11.60;97.40
57564;DHT22;43400;45.926;6.724;2022-09-17T03:33:09;11.60;99.20
57564;DHT22;43400;45.926;6.724;2022-09-17T03:35:42;11.60;99.90
57564;DHT22;43400;45.926;6.724;2022-09-17T03:38:15;11.60;99.90
57564;DHT22;43400;45.926;6.724;2022-09-17T03:41:00;11.60;98.40
57564;DHT22;43400;45.926;6.724;2022-09-17T03:43:33;11.40;97.90
57564;DHT22;43400;45.926;6.724;2022-09-17T03:46:05;11.30;96.90
57564;DHT22;43400;45.926;6.724;2022-09-17T03:48:37;11.40;97.60
57564;DHT22;43400;45.926;6.724;2022-09-17T03:51:09;11.40;99.00
57564;DHT22;43400;45.926;6.724;2022-09-17T03:53:40;11.50;99.80
57564;DHT22;43400;45.926;6.724;2022-09-17T03:56:12;11.40;99.90
57564;DHT22;43400;45.926;6.724;2022-09-17T03:58:44;11.20;96.50
57564;DHT22;43400;45.926;6.724;2022-09-17T04:01:15;11.10;91.50
57564;DHT22;43400;45.926;6.724;2022-09-17T04:03:47;11.10;93.00
57564;DHT22;43400;45.926;6.724;2022-09-17T04:06:19;11.20;92.50
57564;DHT22;43400;45.926;6.724;2022-09-17T04:08:51;11.20;91.00
57564;DHT22;43400;45.926;6.724;2022-09-17T04:11:22;11.20;91.50
57564;DHT22;43400;45.926;6.724;2022-09-17T04:13:54;11.30;93.10
57564;DHT22;43400;45.926;6.724;2022-09-17T04:16:26;11.30;93.80
57564;DHT22;43400;45.926;6.724;2022-09-17T04:18:57;11.20;94.30
57564;DHT22;43400;45.926;6.724;2022-09-17T04:21:29;11.10;95.40
57564;DHT22;43400;45.926;6.724;2022-09-17T04:24:01;11.00;97.00
57564;DHT22;43400;45.926;6.724;2022-09-17T04:26:32;11.00;96.10
57564;DHT22;43400;45.926;6.724;2022-09-17T04:29:04;10.80;97.20
57564;DHT22;43400;45.926;6.724;2022-09-17T04:31:36;10.90;99.60
57564;DHT22;43400;45.926;6.724;2022-09-17T04:34:07;11.00;96.70
57564;DHT22;43400;45.926;6.724;2022-09-17T04:36:39;11.00;97.30
57564;DHT22;43400;45.926;6.724;2022-09-17T04:39:12;11.00;96.00
57564;DHT22;43400;45.926;6.724;2022-09-17T04:41:43;11.00;96.60
57564;DHT22;43400;45.926;6.724;2022-09-17T04:44:15;11.00;98.00
57564;DHT22;43400;45.926;6.724;2022-09-17T04:46:47;10.90;97.20
57564;DHT22;43400;45.926;6.724;2022-09-17T04:49:19;11.00;97.80
57564;DHT22;43400;45.926;6.724;2022-09-17T04:51:50;10.90;97.90
57564;DHT22;43400;45.926;6.724;2022-09-17T04:54:22;10.90;97.90
57564;DHT22;43400;45.926;6.724;2022-09-17T04:56:53;10.90;98.80
57564;DHT22;43400;45.926;6.724;2022-09-17T04:59:25;10.90;98.90
57564;DHT22;43400;45.926;6.724;2022-09-17T05:01:57;10.80;98.20
57564;DHT22;43400;45.926;6.724;2022-09-17T05:04:28;10.80;98.90
57564;DHT22;43400;45.926;6.724;2022-09-17T05:07:00;10.80;99.90
57564;DHT22;43400;45.926;6.724;2022-09-17T05:09:31;10.60;99.90
57564;DHT22;43400;45.926;6.724;2022-09-17T05:12:03;10.60;99.90
57564;DHT22;43400;45.926;6.724;2022-09-17T05:14:34;10.60;99.90
57564;DHT22;43400;45.926;6.724;2022-09-17T05:17:06;10.60;99.90
57564;DHT22;43400;45.926;6.724;2022-09-17T05:19:38;10.40;99.90
57564;DHT22;43400;45.926;6.724;2022-09-17T05:22:09;10.50;99.90
57564;DHT22;43400;45.926;6.724;2022-09-17T05:24:41;10.50;99.90
57564;DHT22;43400;45.926;6.724;2022-09-17T05:27:13;10.50;99.90
57564;DHT22;43400;45.926;6.724;2022-09-17T05:29:45;10.50;99.90
57564;DHT22;43400;45.926;6.724;2022-09-17T05:32:16;10.40;99.90
57564;DHT22;43400;45.926;6.724;2022-09-17T05:34:48;10.40;99.90
57564;DHT22;43400;45.926;6.724;2022-09-17T05:37:20;10.30;99.90
57564;DHT22;43400;45.926;6.724;2022-09-17T05:39:51;10.30;99.90
57564;DHT22;43400;45.926;6.724;2022-09-17T05:42:23;10.30;99.90
57564;DHT22;43400;45.926;6.724;2022-09-17T05:44:55;10.40;99.90
57564;DHT22;43400;45.926;6.724;2022-09-17T05:47:26;10.40;99.90
57564;DHT22;43400;45.926;6.724;2022-09-17T05:49:58;10.40;99.90
57564;DHT22;43400;45.926;6.724;2022-09-17T05:52:30;10.40;99.90
57564;DHT22;43400;45.926;6.724;2022-09-17T05:55:01;10.40;99.90
57564;DHT22;43400;45.926;6.724;2022-09-17T05:57:33;10.60;99.90
57564;DHT22;43400;45.926;6.724;2022-09-17T06:00:05;10.60;99.90
57564;DHT22;43400;45.926;6.724;2022-09-17T06:02:37;10.50;99.90
57564;DHT22;43400;45.926;6.724;2022-09-17T06:05:09;10.60;99.90
57564;DHT22;43400;45.926;6.724;2022-09-17T06:07:40;10.70;99.90
57564;DHT22;43400;45.926;6.724;2022-09-17T06:10:12;10.70;99.90
57564;DHT22;43400;45.926;6.724;2022-09-17T06:12:44;10.70;98.40
57564;DHT22;43400;45.926;6.724;2022-09-17T06:15:15;10.70;97.00
57564;DHT22;43400;45.926;6.724;2022-09-17T06:17:47;10.60;94.80
57564;DHT22;43400;45.926;6.724;2022-09-17T06:20:19;10.60;94.00
57564;DHT22;43400;45.926;6.724;2022-09-17T06:22:55;10.60;94.40
57564;DHT22;43400;45.926;6.724;2022-09-17T06:25:27;10.50;94.10
57564;DHT22;43400;45.926;6.724;2022-09-17T06:28:01;10.40;92.30
57564;DHT22;43400;45.926;6.724;2022-09-17T06:30:33;10.30;92.00
57564;DHT22;43400;45.926;6.724;2022-09-17T06:33:04;10.20;91.30
57564;DHT22;43400;45.926;6.724;2022-09-17T06:35:36;10.20;91.60
57564;DHT22;43400;45.926;6.724;2022-09-17T06:38:07;10.10;91.30
57564;DHT22;43400;45.926;6.724;2022-09-17T06:40:39;10.00;91.10
57564;DHT22;43400;45.926;6.724;2022-09-17T06:43:11;10.10;91.20
57564;DHT22;43400;45.926;6.724;2022-09-17T06:45:42;10.10;91.80
57564;DHT22;43400;45.926;6.724;2022-09-17T06:48:14;10.20;91.60
57564;DHT22;43400;45.926;6.724;2022-09-17T06:50:46;10.20;91.30
57564;DHT22;43400;45.926;6.724;2022-09-17T06:53:17;10.20;91.40
57564;DHT22;43400;45.926;6.724;2022-09-17T06:55:49;10.20;92.00
57564;DHT22;43400;45.926;6.724;2022-09-17T06:58:21;10.30;92.00
57564;DHT22;43400;45.926;6.724;2022-09-17T07:00:57;10.30;92.80
57564;DHT22;43400;45.926;6.724;2022-09-17T07:03:30;10.30;93.10
57564;DHT22;43400;45.926;6.724;2022-09-17T07:06:02;10.30;93.30
57564;DHT22;43400;45.926;6.724;2022-09-17T07:08:34;10.30;93.00
57564;DHT22;43400;45.926;6.724;2022-09-17T07:11:06;10.30;93.90
57564;DHT22;43400;45.926;6.724;2022-09-17T07:13:38;10.30;94.80
57564;DHT22;43400;45.926;6.724;2022-09-17T07:16:10;10.30;95.50
57564;DHT22;43400;45.926;6.724;2022-09-17T07:18:42;10.20;95.70
57564;DHT22;43400;45.926;6.724;2022-09-17T07:21:13;10.20;96.60
57564;DHT22;43400;45.926;6.724;2022-09-17T07:23:45;10.20;96.80
57564;DHT22;43400;45.926;6.724;2022-09-17T07:26:17;10.20;96.10
57564;DHT22;43400;45.926;6.724;2022-09-17T07:28:48;10.20;96.20
57564;DHT22;43400;45.926;6.724;2022-09-17T07:31:20;10.30;96.70
57564;DHT22;43400;45.926;6.724;2022-09-17T07:33:52;10.30;96.20
57564;DHT22;43400;45.926;6.724;2022-09-17T07:36:24;10.30;92.70
57564;DHT22;43400;45.926;6.724;2022-09-17T07:38:55;10.30;94.60
57564;DHT22;43400;45.926;6.724;2022-09-17T07:41:27;10.20;96.90
57564;DHT22;43400;45.926;6.724;2022-09-17T07:43:58;10.20;96.70
57564;DHT22;43400;45.926;6.724;2022-09-17T07:46:30;10.20;96.90
57564;DHT22;43400;45.926;6.724;2022-09-17T07:49:01;10.20;97.50
57564;DHT22;43400;45.926;6.724;2022-09-17T07:51:33;10.10;98.20
57564;DHT22;43400;45.926;6.724;2022-09-17T07:54:05;10.00;98.90
57564;DHT22;43400;45.926;6.724;2022-09-17T07:56:37;10.00;99.00
57564;DHT22;43400;45.926;6.724;2022-09-17T07:59:09;10.00;99.90
57564;DHT22;43400;45.926;6.724;2022-09-17T08:01:40;10.10;97.10
57564;DHT22;43400;45.926;6.724;2022-09-17T08:04:12;10.10;97.00
57564;DHT22;43400;45.926;6.724;2022-09-17T08:06:44;10.30;97.10
57564;DHT22;43400;45.926;6.724;2022-09-17T08:09:16;10.50;97.60
57564;DHT22;43400;45.926;6.724;2022-09-17T08:11:48;10.60;95.40
57564;DHT22;43400;45.926;6.724;2022-09-17T08:14:19;10.80;93.20
57564;DHT22;43400;45.926;6.724;2022-09-17T08:16:51;10.90;93.20
57564;DHT22;43400;45.926;6.724;2022-09-17T08:19:22;11.10;91.50
57564;DHT22;43400;45.926;6.724;2022-09-17T08:21:54;11.20;92.20
57564;DHT22;43400;45.926;6.724;2022-09-17T08:24:26;11.40;89.40
57564;DHT22;43400;45.926;6.724;2022-09-17T08:26:58;11.60;88.40
57564;DHT22;43400;45.926;6.724;2022-09-17T08:29:30;11.70;87.40
57564;DHT22;43400;45.926;6.724;2022-09-17T08:32:02;11.70;86.10
57564;DHT22;43400;45.926;6.724;2022-09-17T08:34:33;11.80;85.50
57564;DHT22;43400;45.926;6.724;2022-09-17T08:37:05;11.80;83.30
57564;DHT22;43400;45.926;6.724;2022-09-17T08:39:36;11.80;83.60
57564;DHT22;43400;45.926;6.724;2022-09-17T08:42:11;11.90;82.50
57564;DHT22;43400;45.926;6.724;2022-09-17T08:44:45;12.00;78.00
57564;DHT22;43400;45.926;6.724;2022-09-17T08:47:27;12.20;77.70
57564;DHT22;43400;45.926;6.724;2022-09-17T08:50:03;12.30;77.00
57564;DHT22;43400;45.926;6.724;2022-09-17T08:53:02;12.40;74.90
57564;DHT22;43400;45.926;6.724;2022-09-17T08:59:06;12.30;79.90
57564;DHT22;43400;45.926;6.724;2022-09-17T09:01:58;12.20;79.50
57564;DHT22;43400;45.926;6.724;2022-09-17T09:07:36;12.80;79.30
57564;DHT22;43400;45.926;6.724;2022-09-17T09:10:17;13.10;74.30
57564;DHT22;43400;45.926;6.724;2022-09-17T09:12:51;13.40;72.60
57564;DHT22;43400;45.926;6.724;2022-09-17T09:15:44;13.40;70.50
57564;DHT22;43400;45.926;6.724;2022-09-17T09:18:19;13.20;66.90
57564;DHT22;43400;45.926;6.724;2022-09-17T09:20:52;13.10;67.10
57564;DHT22;43400;45.926;6.724;2022-09-17T09:23:39;13.00;67.10
57564;DHT22;43400;45.926;6.724;2022-09-17T09:26:41;13.10;65.70
57564;DHT22;43400;45.926;6.724;2022-09-17T09:32:10;13.20;66.20
57564;DHT22;43400;45.926;6.724;2022-09-17T09:34:45;13.30;66.80
57564;DHT22;43400;45.926;6.724;2022-09-17T09:37:26;13.50;67.80
57564;DHT22;43400;45.926;6.724;2022-09-17T09:40:22;13.80;68.90
57564;DHT22;43400;45.926;6.724;2022-09-17T09:43:00;14.00;64.70
57564;DHT22;43400;45.926;6.724;2022-09-17T09:45:59;14.10;65.60
57564;DHT22;43400;45.926;6.724;2022-09-17T09:59:10;14.80;62.80
57564;DHT22;43400;45.926;6.724;2022-09-17T10:01:43;15.00;65.10
57564;DHT22;43400;45.926;6.724;2022-09-17T10:06:54;15.30;59.90
57564;DHT22;43400;45.926;6.724;2022-09-17T10:09:31;15.40;65.50
57564;DHT22;43400;45.926;6.724;2022-09-17T10:14:44;16.20;60.70
57564;DHT22;43400;45.926;6.724;2022-09-17T10:17:23;16.00;58.20
57564;DHT22;43400;45.926;6.724;2022-09-17T10:22:34;15.90;60.30
57564;DHT22;43400;45.926;6.724;2022-09-17T10:25:32;16.00;59.00
57564;DHT22;43400;45.926;6.724;2022-09-17T10:30:58;16.60;58.90
57564;DHT22;43400;45.926;6.724;2022-09-17T10:33:31;16.90;59.60
57564;DHT22;43400;45.926;6.724;2022-09-17T10:36:04;16.90;57.20
57564;DHT22;43400;45.926;6.724;2022-09-17T10:38:39;16.80;55.20
57564;DHT22;43400;45.926;6.724;2022-09-17T10:43:45;16.80;55.80
57564;DHT22;43400;45.926;6.724;2022-09-17T10:46:26;17.20;54.80
57564;DHT22;43400;45.926;6.724;2022-09-17T10:49:10;18.10;53.10
57564;DHT22;43400;45.926;6.724;2022-09-17T10:51:48;19.30;52.70
57564;DHT22;43400;45.926;6.724;2022-09-17T11:00:20;20.40;44.30
57564;DHT22;43400;45.926;6.724;2022-09-17T11:39:32;23.90;38.80
57564;DHT22;43400;45.926;6.724;2022-09-17T11:42:12;24.00;38.30
57564;DHT22;43400;45.926;6.724;2022-09-17T11:44:50;24.30;38.90
57564;DHT22;43400;45.926;6.724;2022-09-17T11:47:32;24.00;39.00
57564;DHT22;43400;45.926;6.724;2022-09-17T12:07:46;24.00;41.20
57564;DHT22;43400;45.926;6.724;2022-09-17T12:09:54;23.70;37.60
57564;DHT22;43400;45.926;6.724;2022-09-17T12:12:27;23.90;39.50
57564;DHT22;43400;45.926;6.724;2022-09-17T12:15:17;24.00;39.10
57564;DHT22;43400;45.926;6.724;2022-09-17T12:17:55;24.50;39.10
57564;DHT22;43400;45.926;6.724;2022-09-17T12:20:34;24.70;38.80
57564;DHT22;43400;45.926;6.724;2022-09-17T12:23:11;24.60;37.00
57564;DHT22;43400;45.926;6.724;2022-09-17T12:31:31;24.00;40.00
57564;DHT22;43400;45.926;6.724;2022-09-17T12:37:26;23.00;39.50
57564;DHT22;43400;45.926;6.724;2022-09-17T12:46:14;23.00;38.30
57564;DHT22;43400;45.926;6.724;2022-09-17T12:57:23;23.70;39.50
57564;DHT22;43400;45.926;6.724;2022-09-17T13:00:00;23.80;39.70
57564;DHT22;43400;45.926;6.724;2022-09-17T13:10:39;24.30;38.40
57564;DHT22;43400;45.926;6.724;2022-09-17T13:24:01;23.40;37.60
57564;DHT22;43400;45.926;6.724;2022-09-17T13:26:45;23.10;38.30
57564;DHT22;43400;45.926;6.724;2022-09-17T13:37:41;24.20;38.20
57564;DHT22;43400;45.926;6.724;2022-09-17T13:40:28;24.80;37.80
57564;DHT22;43400;45.926;6.724;2022-09-17T13:48:33;25.70;38.70
57564;DHT22;43400;45.926;6.724;2022-09-17T13:54:10;25.00;35.70
57564;DHT22;43400;45.926;6.724;2022-09-17T13:56:46;24.10;37.10
57564;DHT22;43400;45.926;6.724;2022-09-17T13:59:22;24.40;38.10
57564;DHT22;43400;45.926;6.724;2022-09-17T14:01:58;24.20;37.50
57564;DHT22;43400;45.926;6.724;2022-09-17T14:23:43;24.30;38.50
57564;DHT22;43400;45.926;6.724;2022-09-17T14:27:14;24.50;36.10
57564;DHT22;43400;45.926;6.724;2022-09-17T14:29:35;24.50;38.90
57564;DHT22;43400;45.926;6.724;2022-09-17T14:32:16;25.00;38.50
57564;DHT22;43400;45.926;6.724;2022-09-17T14:34:48;25.60;38.80
57564;DHT22;43400;45.926;6.724;2022-09-17T14:37:21;25.00;35.60
57564;DHT22;43400;45.926;6.724;2022-09-17T14:39:54;24.30;37.00
57564;DHT22;43400;45.926;6.724;2022-09-17T14:42:33;24.20;37.50
57564;DHT22;43400;45.926;6.724;2022-09-17T14:45:14;24.60;40.00
57564;DHT22;43400;45.926;6.724;2022-09-17T14:47:47;25.10;37.00
57564;DHT22;43400;45.926;6.724;2022-09-17T14:50:20;25.00;37.10
57564;DHT22;43400;45.926;6.724;2022-09-17T14:52:53;24.90;37.50
57564;DHT22;43400;45.926;6.724;2022-09-17T14:55:27;24.70;35.90
57564;DHT22;43400;45.926;6.724;2022-09-17T14:58:01;24.90;38.00
57564;DHT22;43400;45.926;6.724;2022-09-17T15:00:34;24.90;36.90
57564;DHT22;43400;45.926;6.724;2022-09-17T15:03:20;24.80;37.40
57564;DHT22;43400;45.926;6.724;2022-09-17T15:05:52;24.30;35.90
57564;DHT22;43400;45.926;6.724;2022-09-17T15:08:27;24.30;38.10
57564;DHT22;43400;45.926;6.724;2022-09-17T15:13:35;23.70;40.00
57564;DHT22;43400;45.926;6.724;2022-09-17T15:16:22;23.10;38.80
57564;DHT22;43400;45.926;6.724;2022-09-17T15:18:58;23.70;40.90
57564;DHT22;43400;45.926;6.724;2022-09-17T15:21:41;23.80;41.10
57564;DHT22;43400;45.926;6.724;2022-09-17T15:27:00;23.60;43.80
57564;DHT22;43400;45.926;6.724;2022-09-17T15:29:34;23.30;41.80
57564;DHT22;43400;45.926;6.724;2022-09-17T15:32:10;22.10;42.20
57564;DHT22;43400;45.926;6.724;2022-09-17T15:34:43;21.50;43.50
57564;DHT22;43400;45.926;6.724;2022-09-17T15:37:19;20.90;44.40
57564;DHT22;43400;45.926;6.724;2022-09-17T15:39:52;20.60;45.30
57564;DHT22;43400;45.926;6.724;2022-09-17T15:42:29;20.50;45.60
57564;DHT22;43400;45.926;6.724;2022-09-17T15:45:16;20.50;45.40
57564;DHT22;43400;45.926;6.724;2022-09-17T15:47:56;20.50;47.30
57564;DHT22;43400;45.926;6.724;2022-09-17T15:50:30;20.40;46.80
57564;DHT22;43400;45.926;6.724;2022-09-17T15:55:43;20.30;46.90
57564;DHT22;43400;45.926;6.724;2022-09-17T16:08:56;19.50;47.60
57564;DHT22;43400;45.926;6.724;2022-09-17T16:11:30;19.50;48.80
57564;DHT22;43400;45.926;6.724;2022-09-17T16:14:02;19.70;49.30
57564;DHT22;43400;45.926;6.724;2022-09-17T16:16:35;19.60;48.00
57564;DHT22;43400;45.926;6.724;2022-09-17T16:19:09;19.20;48.40
57564;DHT22;43400;45.926;6.724;2022-09-17T16:21:41;18.90;48.80
57564;DHT22;43400;45.926;6.724;2022-09-17T16:24:12;18.90;49.90
57564;DHT22;43400;45.926;6.724;2022-09-17T16:26:44;18.70;48.90
57564;DHT22;43400;45.926;6.724;2022-09-17T16:29:16;18.80;51.00
57564;DHT22;43400;45.926;6.724;2022-09-17T16:31:49;18.80;49.80
57564;DHT22;43400;45.926;6.724;2022-09-17T16:34:21;18.50;50.60
57564;DHT22;43400;45.926;6.724;2022-09-17T16:36:53;18.10;48.90
57564;DHT22;43400;45.926;6.724;2022-09-17T16:39:25;17.90;51.10
57564;DHT22;43400;45.926;6.724;2022-09-17T16:41:56;17.80;49.80
57564;DHT22;43400;45.926;6.724;2022-09-17T16:44:28;17.60;50.90
57564;DHT22;43400;45.926;6.724;2022-09-17T16:47:00;17.50;51.80
57564;DHT22;43400;45.926;6.724;2022-09-17T16:49:31;17.30;51.70
57564;DHT22;43400;45.926;6.724;2022-09-17T16:52:03;17.30;51.10
57564;DHT22;43400;45.926;6.724;2022-09-17T16:54:35;17.10;51.60
57564;DHT22;43400;45.926;6.724;2022-09-17T16:57:06;16.80;51.50
57564;DHT22;43400;45.926;6.724;2022-09-17T16:59:38;16.50;51.20
57564;DHT22;43400;45.926;6.724;2022-09-17T17:02:09;16.40;52.30
57564;DHT22;43400;45.926;6.724;2022-09-17T17:04:41;16.20;52.80
57564;DHT22;43400;45.926;6.724;2022-09-17T17:07:12;16.00;52.80
57564;DHT22;43400;45.926;6.724;2022-09-17T17:09:44;16.00;52.70
57564;DHT22;43400;45.926;6.724;2022-09-17T17:12:16;15.80;53.10
57564;DHT22;43400;45.926;6.724;2022-09-17T17:14:47;15.60;53.10
57564;DHT22;43400;45.926;6.724;2022-09-17T17:17:20;15.50;53.40
57564;DHT22;43400;45.926;6.724;2022-09-17T17:19:51;15.40;55.00
57564;DHT22;43400;45.926;6.724;2022-09-17T17:22:23;15.30;53.90
57564;DHT22;43400;45.926;6.724;2022-09-17T17:24:55;15.20;54.50
57564;DHT22;43400;45.926;6.724;2022-09-17T17:27:26;15.10;54.20
57564;DHT22;43400;45.926;6.724;2022-09-17T17:29:58;15.00;54.50
57564;DHT22;43400;45.926;6.724;2022-09-17T17:32:30;14.90;54.30
57564;DHT22;43400;45.926;6.724;2022-09-17T17:35:02;15.00;55.50
57564;DHT22;43400;45.926;6.724;2022-09-17T17:37:34;15.00;54.70
57564;DHT22;43400;45.926;6.724;2022-09-17T17:40:06;14.80;54.60
57564;DHT22;43400;45.926;6.724;2022-09-17T17:42:38;14.80;54.80
57564;DHT22;43400;45.926;6.724;2022-09-17T17:45:10;14.80;54.60
57564;DHT22;43400;45.926;6.724;2022-09-17T17:47:41;14.70;54.90
57564;DHT22;43400;45.926;6.724;2022-09-17T17:50:13;14.70;55.10
57564;DHT22;43400;45.926;6.724;2022-09-17T17:52:45;14.60;55.20
57564;DHT22;43400;45.926;6.724;2022-09-17T17:55:16;14.50;55.10
57564;DHT22;43400;45.926;6.724;2022-09-17T17:57:54;14.40;55.90
57564;DHT22;43400;45.926;6.724;2022-09-17T18:00:25;14.30;55.90
57564;DHT22;43400;45.926;6.724;2022-09-17T18:02:57;14.30;55.90
57564;DHT22;43400;45.926;6.724;2022-09-17T18:05:29;14.20;56.00
57564;DHT22;43400;45.926;6.724;2022-09-17T18:08:00;14.20;56.60
57564;DHT22;43400;45.926;6.724;2022-09-17T18:10:32;14.20;56.50
57564;DHT22;43400;45.926;6.724;2022-09-17T18:13:04;14.20;57.20
57564;DHT22;43400;45.926;6.724;2022-09-17T18:15:35;14.10;56.90
57564;DHT22;43400;45.926;6.724;2022-09-17T18:18:07;14.00;56.90
57564;DHT22;43400;45.926;6.724;2022-09-17T18:20:38;13.90;57.10
57564;DHT22;43400;45.926;6.724;2022-09-17T18:23:10;13.90;57.70
57564;DHT22;43400;45.926;6.724;2022-09-17T18:25:51;13.90;57.80
57564;DHT22;43400;45.926;6.724;2022-09-17T18:28:23;13.80;58.00
57564;DHT22;43400;45.926;6.724;2022-09-17T18:30:56;13.70;58.10
57564;DHT22;43400;45.926;6.724;2022-09-17T18:33:28;13.70;58.70
57564;DHT22;43400;45.926;6.724;2022-09-17T18:36:02;13.60;58.40
57564;DHT22;43400;45.926;6.724;2022-09-17T18:38:34;13.60;60.20
57564;DHT22;43400;45.926;6.724;2022-09-17T18:41:08;13.60;61.10
57564;DHT22;43400;45.926;6.724;2022-09-17T18:43:40;13.50;59.70
57564;DHT22;43400;45.926;6.724;2022-09-17T18:46:12;13.50;60.80
57564;DHT22;43400;45.926;6.724;2022-09-17T18:48:44;13.50;61.70
57564;DHT22;43400;45.926;6.724;2022-09-17T18:51:15;13.60;61.10
57564;DHT22;43400;45.926;6.724;2022-09-17T18:53:47;13.40;60.20
57564;DHT22;43400;45.926;6.724;2022-09-17T18:56:26;13.30;60.10
57564;DHT22;43400;45.926;6.724;2022-09-17T18:58:58;13.40;61.30
57564;DHT22;43400;45.926;6.724;2022-09-17T19:01:31;13.40;61.50
57564;DHT22;43400;45.926;6.724;2022-09-17T19:04:03;13.40;61.80
57564;DHT22;43400;45.926;6.724;2022-09-17T19:06:35;13.30;61.90
57564;DHT22;43400;45.926;6.724;2022-09-17T19:09:08;13.20;63.90
57564;DHT22;43400;45.926;6.724;2022-09-17T19:11:39;13.20;65.20
57564;DHT22;43400;45.926;6.724;2022-09-17T19:14:11;13.10;64.40
57564;DHT22;43400;45.926;6.724;2022-09-17T19:16:43;13.10;65.40
57564;DHT22;43400;45.926;6.724;2022-09-17T19:19:14;13.00;65.80
57564;DHT22;43400;45.926;6.724;2022-09-17T19:21:48;12.90;67.30
57564;DHT22;43400;45.926;6.724;2022-09-17T19:24:20;12.80;67.60
57564;DHT22;43400;45.926;6.724;2022-09-17T19:26:51;12.70;68.00
57564;DHT22;43400;45.926;6.724;2022-09-17T19:29:23;12.70;69.10
57564;DHT22;43400;45.926;6.724;2022-09-17T19:31:55;12.60;70.00
57564;DHT22;43400;45.926;6.724;2022-09-17T19:34:26;12.30;70.40
57564;DHT22;43400;45.926;6.724;2022-09-17T19:36:58;12.30;71.20
57564;DHT22;43400;45.926;6.724;2022-09-17T19:39:30;12.30;71.30
57564;DHT22;43400;45.926;6.724;2022-09-17T19:42:01;12.20;71.50
57564;DHT22;43400;45.926;6.724;2022-09-17T19:44:33;12.10;71.30
57564;DHT22;43400;45.926;6.724;2022-09-17T19:47:05;12.10;72.70
57564;DHT22;43400;45.926;6.724;2022-09-17T19:49:36;11.90;73.30
57564;DHT22;43400;45.926;6.724;2022-09-17T19:52:08;11.80;74.20
57564;DHT22;43400;45.926;6.724;2022-09-17T19:54:39;11.80;74.40
57564;DHT22;43400;45.926;6.724;2022-09-17T19:57:11;11.70;74.60
57564;DHT22;43400;45.926;6.724;2022-09-17T19:59:43;11.60;74.90
57564;DHT22;43400;45.926;6.724;2022-09-17T20:02:15;11.50;75.20
57564;DHT22;43400;45.926;6.724;2022-09-17T20:04:47;11.50;75.30